Hoegh Transporter — LAKO7 — position and weather

sailwx.info

Track history (hours):
 
Tides and Currents Weather Stations Pressure Air Temp Water Temp Dewpoint Dewpoint Depression Visibility Wind Speed Wind Dir Waves Ship Positions

Hoegh Transporter

Last reported at 2017-Jun-21 18:35 UTC. Time now 2017-Jun-27 19:10 UTC.
Position N 09°41' W 079°57'.

Length 199 m; draft 9.5 m.

Type: Cargo ship. MMSI: 257712000.

Date/timePositionNaut miles runAvg speedWind from/ knotsBaromVisibWave heightAir tempDewpointWater temp
2017-Jun-21 18:35N 09°41' W 079°57'117.5
2017-Jun-21 18:30N 09°39' W 079°57'817.2
2017-Jun-21 18:01N 09°31' W 079°55'816.6
2017-Jun-21 17:31N 09°23' W 079°55'4 8.9
2017-Jun-21 17:01N 09°18' W 079°55'2 3.1
2017-Jun-21 16:31N 09°17' W 079°55'0 0.4
2017-Jun-21 16:01N 09°16' W 079°55'0 0.0
2017-Jun-21 15:31N 09°16' W 079°55'0 0.4
2017-Jun-21 15:01N 09°16' W 079°55'0 0.6
2017-Jun-21 14:30N 09°16' W 079°55'6 4.9
2017-Jun-21 13:18N 09°11' W 079°52'  
2017-Jun-15 01:29N 23°55' W 112°55'10917.5
2017-Jun-14 19:15N 24°58' W 114°32'5416.9
2017-Jun-14 16:02N 25°30' W 115°20'118.0
2017-Jun-14 16:00N 25°31' W 115°20'1417.2
2017-Jun-14 15:11N 25°39' W 115°33'617.5
2017-Jun-14 14:51N 25°43' W 115°38'3017.5
2017-Jun-14 13:08N 26°02' W 116°03'217.4
2017-Jun-14 13:00N 26°04' W 116°05'917.6
2017-Jun-14 12:30N 26°09' W 116°13'5317.2
2017-Jun-14 09:27N 26°44' W 116°56'7817.1
2017-Jun-14 04:52N 27°35' W 118°04'8916.5
2017-Jun-13 23:29N 28°32' W 119°21'1917.0
2017-Jun-13 22:23N 28°44' W 119°37'1216.8
2017-Jun-13 21:41N 28°51' W 119°48'1916.8
2017-Jun-13 20:34N 29°04' W 120°03'416.6
2017-Jun-13 20:18N 29°07' W 120°07'516.7
2017-Jun-13 20:00N 29°10' W 120°11'3516.6
2017-Jun-13 17:56N 29°33' W 120°41'816.5
2017-Jun-13 17:25N 29°38' W 120°49'3416.8
2017-Jun-13 15:24N 29°59' W 121°19'2517.0
2017-Jun-13 13:55N 30°15' W 121°42'717.3
2017-Jun-13 13:30N 30°20' W 121°48'917.1
2017-Jun-13 12:57N 30°26' W 121°56'917.3
2017-Jun-13 12:26N 30°32' W 122°04'717.5
2017-Jun-13 12:00N 30°37' W 122°11'917.6
2017-Jun-13 11:30N 30°42' W 122°19'4417.3
2017-Jun-13 08:58N 31°09' W 122°60'1217.1
2017-Jun-13 08:17N 31°16' W 123°11'  
Track history (hours):
 
Tides and Currents Weather Stations Pressure Air Temp Water Temp Dewpoint Dewpoint Depression Visibility Wind Speed Wind Dir Waves Ship Positions

Hoegh Transporter

Last reported at 2017-Jun-21 18:35 UTC. Time now 2017-Jun-27 19:10 UTC.
Position N 09°41' W 079°57'.

Length 199 m; draft 9.5 m.

Type: Cargo ship. MMSI: 257712000.

Date/timePositionNaut miles runAvg speedWind from/ knotsBaromVisibWave heightAir tempDewpointWater temp
2017-Jun-21 18:35N 09°41' W 079°57'117.5
2017-Jun-21 18:30N 09°39' W 079°57'817.2
2017-Jun-21 18:01N 09°31' W 079°55'816.6
2017-Jun-21 17:31N 09°23' W 079°55'4 8.9
2017-Jun-21 17:01N 09°18' W 079°55'2 3.1
2017-Jun-21 16:31N 09°17' W 079°55'0 0.4
2017-Jun-21 16:01N 09°16' W 079°55'0 0.0
2017-Jun-21 15:31N 09°16' W 079°55'0 0.4
2017-Jun-21 15:01N 09°16' W 079°55'0 0.6
2017-Jun-21 14:30N 09°16' W 079°55'6 4.9
2017-Jun-21 13:18N 09°11' W 079°52'  
2017-Jun-15 01:29N 23°55' W 112°55'10917.5
2017-Jun-14 19:15N 24°58' W 114°32'5416.9
2017-Jun-14 16:02N 25°30' W 115°20'118.0
2017-Jun-14 16:00N 25°31' W 115°20'1417.2
2017-Jun-14 15:11N 25°39' W 115°33'617.5
2017-Jun-14 14:51N 25°43' W 115°38'3017.5
2017-Jun-14 13:08N 26°02' W 116°03'217.4
2017-Jun-14 13:00N 26°04' W 116°05'917.6
2017-Jun-14 12:30N 26°09' W 116°13'5317.2
2017-Jun-14 09:27N 26°44' W 116°56'7817.1
2017-Jun-14 04:52N 27°35' W 118°04'8916.5
2017-Jun-13 23:29N 28°32' W 119°21'1917.0
2017-Jun-13 22:23N 28°44' W 119°37'1216.8
2017-Jun-13 21:41N 28°51' W 119°48'1916.8
2017-Jun-13 20:34N 29°04' W 120°03'416.6
2017-Jun-13 20:18N 29°07' W 120°07'516.7
2017-Jun-13 20:00N 29°10' W 120°11'3516.6
2017-Jun-13 17:56N 29°33' W 120°41'816.5
2017-Jun-13 17:25N 29°38' W 120°49'3416.8
2017-Jun-13 15:24N 29°59' W 121°19'2517.0
2017-Jun-13 13:55N 30°15' W 121°42'717.3
2017-Jun-13 13:30N 30°20' W 121°48'917.1
2017-Jun-13 12:57N 30°26' W 121°56'917.3
2017-Jun-13 12:26N 30°32' W 122°04'717.5
2017-Jun-13 12:00N 30°37' W 122°11'917.6
2017-Jun-13 11:30N 30°42' W 122°19'4417.3
2017-Jun-13 08:58N 31°09' W 122°60'1217.1
2017-Jun-13 08:17N 31°16' W 123°11'  

Dump ship's entire track history